Time;durP1;ratioP1;P1;durP2;ratioP2;P2;SDS_P1;SDS_P2;PMS_P1;PMS_P2;Temp;Humidity;BMP_temperature;BMP_pressure;BME280_temperature;BME280_humidity;BME280_pressure;Samples;Min_cycle;Max_cycle;Signal;HPM_P1;HPM_P2
2021/12/21 00:00:18;;;;;;;3.60;1.50;;;1.20;99.90;;;-0.85;69.81;100574.66;10366351;28;96595;-76
2021/12/21 00:05:27;;;;;;;4.23;1.40;;;1.20;99.70;;;-0.90;69.44;100575.84;10405234;28;96740;-76
2021/12/21 00:10:33;;;;;;;2.63;1.60;;;1.10;99.50;;;-0.98;69.51;100578.91;10378876;28;96732;-76
2021/12/21 00:21:45;;;;;;;2.97;1.27;;;1.10;99.00;;;-1.05;68.82;100588.00;10395415;28;96778;-76
2021/12/21 00:26:16;;;;;;;;;;;1.00;98.50;;;-1.05;68.12;100595.81;10352075;28;96790;-76
2021/12/21 00:31:20;;;;;;;3.93;1.57;;;1.00;97.70;;;-1.11;67.94;100604.81;10349901;28;96634;-76
2021/12/21 00:36:26;;;;;;;2.67;1.17;;;1.00;97.70;;;-1.14;67.81;100614.56;10371500;28;96827;-76
2021/12/21 00:41:31;;;;;;;5.50;1.10;;;0.90;97.70;;;-1.23;67.33;100615.91;10364499;28;96708;-76
2021/12/21 00:46:34;;;;;;;2.10;1.00;;;0.90;97.30;;;-1.26;66.72;100630.88;10393081;28;96786;-76
2021/12/21 00:51:37;;;;;;;2.83;1.37;;;0.80;96.00;;;-1.28;66.42;100637.94;10381418;28;98748;-76
2021/12/21 00:56:40;;;;;;;2.60;1.20;;;0.80;96.20;;;-1.31;65.92;100651.16;10375054;28;96874;-76
2021/12/21 01:01:43;;;;;;;3.63;1.30;;;0.80;95.80;;;-1.35;65.83;100648.69;10388810;28;96560;-76
2021/12/21 01:07:08;;;;;;;3.73;1.43;;;0.80;95.50;;;-1.41;65.66;100659.44;10377309;28;96588;-76
2021/12/21 01:12:16;;;;;;;2.13;1.30;;;0.70;95.10;;;-1.43;65.38;100666.53;10365598;28;96857;-76
2021/12/21 01:17:32;;;;;;;2.00;1.03;;;0.70;95.10;;;-1.38;64.62;100669.72;10364238;28;96506;-76
2021/12/21 01:28:12;;;;;;;3.17;1.40;;;0.70;94.50;;;-1.47;65.12;100688.44;10372454;28;96601;-76
2021/12/21 01:34:11;;;;;;;3.30;1.10;;;0.60;94.20;;;-1.50;65.12;100687.75;10375447;28;96529;-75
2021/12/21 01:39:28;;;;;;;2.93;1.03;;;0.60;94.20;;;-1.52;65.10;100687.84;10350506;28;96637;-75
2021/12/21 01:54:41;;;;;;;2.50;1.13;;;0.50;93.60;;;-1.60;64.54;100690.00;10403948;28;97066;-75
2021/12/21 01:59:46;;;;;;;1.97;1.40;;;0.50;93.60;;;-1.60;64.34;100687.41;10369301;28;97288;-75
2021/12/21 02:04:49;;;;;;;2.33;1.13;;;0.50;93.30;;;-1.58;64.40;100711.59;10352225;28;98368;-76
2021/12/21 02:09:53;;;;;;;2.30;1.30;;;0.50;93.30;;;-1.58;64.21;100716.81;10365818;28;97323;-76
2021/12/21 02:14:58;;;;;;;2.33;1.20;;;0.50;93.40;;;-1.59;64.12;100712.53;10368104;28;96461;-76
2021/12/21 02:20:20;;;;;;;4.00;1.57;;;0.50;93.10;;;-1.59;63.81;100715.13;10387250;28;96676;-76
2021/12/21 02:30:26;;;;;;;3.43;1.30;;;0.40;92.90;;;-1.72;63.83;100712.31;10372003;28;96567;-76
2021/12/21 02:35:30;;;;;;;2.40;0.90;;;0.30;92.80;;;-1.80;64.03;100711.88;10388673;28;98173;-76
2021/12/21 02:40:34;;;;;;;2.90;1.20;;;0.30;92.90;;;-1.89;64.35;100714.91;10377650;28;96519;-76
2021/12/21 02:45:39;;;;;;;6.90;1.17;;;0.30;93.00;;;-1.97;64.73;100723.13;10364597;28;96630;-76
2021/12/21 02:50:42;;;;;;;2.43;1.17;;;0.20;92.80;;;-1.99;64.75;100740.56;10396929;28;96527;-75
2021/12/21 02:55:45;;;;;;;1.37;0.77;;;0.10;92.80;;;-2.00;64.58;100751.06;10376176;28;96482;-76
2021/12/21 03:00:48;;;;;;;2.50;1.20;;;0.10;92.90;;;-2.03;64.71;100751.22;10369966;28;96592;-76
2021/12/21 03:05:54;;;;;;;2.40;1.10;;;0.10;93.00;;;-2.13;64.88;100748.19;10407940;28;96504;-76
2021/12/21 03:11:14;;;;;;;5.17;1.07;;;0.00;93.10;;;-2.19;65.27;100743.28;10360206;28;97029;-76
2021/12/21 03:16:17;;;;;;;2.47;0.80;;;0.00;93.20;;;-2.25;65.16;100748.78;10376618;28;96875;-74
2021/12/21 03:21:20;;;;;;;2.83;1.30;;;-0.10;93.30;;;-2.28;65.15;100757.59;10400978;28;96563;-75
2021/12/21 03:26:22;;;;;;;2.50;1.40;;;-0.10;93.40;;;-2.31;65.15;100754.28;10368831;28;96683;-76
2021/12/21 03:31:25;;;;;;;2.23;1.20;;;-0.20;93.20;;;-2.36;65.45;100761.47;10385486;28;96623;-75
2021/12/21 03:36:28;;;;;;;3.73;1.10;;;-0.20;93.40;;;-2.41;65.54;100756.47;10366558;28;96562;-76
2021/12/21 03:41:33;;;;;;;2.67;0.90;;;-0.30;93.30;;;-2.45;65.47;100762.75;10360203;28;96815;-76
2021/12/21 03:46:44;;;;;;;4.23;1.67;;;-0.30;93.00;;;-2.50;65.29;100768.16;10375484;28;97047;-76
2021/12/21 03:51:47;;;;;;;2.40;1.10;;;-0.30;93.10;;;-2.53;65.30;100781.31;10376273;28;96739;-76
2021/12/21 03:56:51;;;;;;;3.77;1.27;;;-0.40;93.00;;;-2.59;65.83;100786.78;10373739;28;96625;-76
2021/12/21 04:01:55;;;;;;;3.93;1.73;;;-0.40;93.40;;;-2.61;65.93;100787.78;10381742;28;97034;-76
2021/12/21 04:06:57;;;;;;;4.10;1.40;;;-0.50;93.40;;;-2.68;65.60;100787.22;10380900;28;96911;-76
2021/12/21 04:12:00;;;;;;;3.90;1.30;;;-0.50;93.20;;;-2.72;65.77;100790.88;10375447;28;98191;-76
2021/12/21 04:17:04;;;;;;;2.87;0.77;;;-0.50;93.70;;;-2.72;65.44;100786.50;10366872;28;97225;-76
2021/12/21 04:22:07;;;;;;;3.80;0.97;;;-0.60;92.80;;;-2.66;65.00;100800.16;10371260;28;96582;-75
2021/12/21 04:27:10;;;;;;;2.87;1.03;;;-0.50;92.70;;;-2.68;65.02;100805.44;10385752;28;96592;-75
2021/12/21 04:32:13;;;;;;;1.27;0.80;;;-0.50;92.60;;;-2.61;64.35;100817.25;10358257;28;96978;-75
2021/12/21 04:37:17;;;;;;;2.10;1.07;;;-0.50;92.20;;;-2.57;64.15;100821.41;10365512;28;98107;-75
2021/12/21 04:42:20;;;;;;;2.37;0.93;;;-0.50;92.30;;;-2.58;64.46;100826.66;10396415;28;96460;-75
2021/12/21 04:47:24;;;;;;;2.83;1.00;;;-0.50;92.20;;;-2.58;64.32;100826.66;10393725;28;96689;-75
2021/12/21 04:52:27;;;;;;;2.13;0.90;;;-0.50;92.20;;;-2.61;64.13;100821.59;10367425;28;96676;-75
2021/12/21 04:57:29;;;;;;;6.27;2.10;;;-0.50;92.30;;;-2.64;64.37;100825.16;10382047;28;96650;-76
2021/12/21 05:02:32;;;;;;;2.90;1.20;;;-0.50;92.10;;;-2.63;63.89;100836.47;10372293;28;97080;-75
2021/12/21 05:07:37;;;;;;;2.80;1.20;;;-0.50;91.70;;;-2.64;63.91;100840.78;10380716;28;96596;-76
2021/12/21 05:12:40;;;;;;;1.93;0.80;;;-0.50;91.90;;;-2.72;64.68;100841.13;10373942;28;96560;-76
2021/12/21 05:17:43;;;;;;;3.60;1.10;;;-0.50;92.20;;;-2.81;65.07;100843.31;10355814;28;96527;-76
2021/12/21 05:22:48;;;;;;;2.70;1.20;;;-0.60;92.50;;;-2.88;65.22;100860.06;10407302;28;96633;-75
2021/12/21 05:27:51;;;;;;;1.13;0.60;;;-0.70;92.60;;;-2.89;64.98;100874.00;10410771;28;96424;-76
2021/12/21 05:32:56;;;;;;;1.50;0.90;;;-0.70;92.50;;;-2.96;65.21;100878.63;10365333;28;96767;-75
2021/12/21 05:38:03;;;;;;;3.53;1.30;;;-0.80;92.50;;;-3.07;65.28;100866.06;10383002;28;96613;-75
2021/12/21 05:43:08;;;;;;;3.97;1.10;;;-0.90;92.60;;;-3.14;65.60;100866.41;10361123;28;96672;-75
2021/12/21 05:48:11;;;;;;;1.90;0.90;;;-0.90;92.80;;;-3.17;65.54;100854.38;10366919;28;98012;-76
2021/12/21 05:53:13;;;;;;;2.07;1.07;;;-1.00;92.70;;;-3.21;65.38;100864.97;10385122;28;96624;-75
2021/12/21 05:58:16;;;;;;;5.33;2.40;;;-1.00;92.60;;;-3.26;65.68;100875.53;10402285;28;96588;-76
2021/12/21 06:03:19;;;;;;;4.53;1.80;;;-1.00;92.70;;;-3.27;65.50;100881.66;10381816;28;96668;-75
2021/12/21 06:08:24;;;;;;;3.80;1.80;;;-1.10;92.50;;;-3.30;65.82;100884.38;10365384;28;96603;-75
2021/12/21 06:14:17;;;;;;;3.33;1.40;;;-1.10;92.60;;;-3.32;65.50;100896.59;10386734;28;96506;-76
2021/12/21 06:29:11;;;;;;;2.83;1.20;;;-1.10;92.50;;;-3.32;65.11;100922.59;10377746;28;96645;-76
2021/12/21 06:34:14;;;;;;;5.47;1.47;;;-1.10;92.40;;;-3.42;65.50;100922.09;10385953;28;96584;-76
2021/12/21 06:39:17;;;;;;;5.07;1.97;;;-1.20;92.70;;;-3.51;66.38;100923.31;10366818;28;96717;-75
2021/12/21 06:44:21;;;;;;;4.47;1.67;;;-1.30;92.90;;;-3.59;66.86;100916.75;10378527;28;96611;-76
2021/12/21 06:54:47;;;;;;;3.70;1.77;;;-1.40;93.80;;;-3.41;67.67;100922.97;10375758;28;97009;-76
2021/12/21 06:59:51;;;;;;;3.20;1.27;;;-1.40;94.40;;;-3.17;67.15;100932.38;10364070;28;98440;-76
2021/12/21 07:04:55;;;;;;;49.73;15.47;;;-1.20;94.60;;;-3.02;66.52;100930.88;10365006;28;96776;-76
2021/12/21 07:10:05;;;;;;;2.87;1.80;;;-1.10;94.20;;;-3.04;66.62;100928.34;10357586;28;96624;-76
2021/12/21 07:20:30;;;;;;;3.67;1.20;;;-1.00;94.30;;;-3.01;66.82;100943.81;10370023;28;98515;-76
2021/12/21 07:25:33;;;;;;;3.53;1.30;;;-0.90;94.10;;;-2.94;66.42;100940.94;10397094;28;96850;-76
2021/12/21 07:30:36;;;;;;;29.13;12.20;;;-0.90;94.10;;;-2.73;66.50;100948.72;10382404;28;97068;-76
2021/12/21 07:35:39;;;;;;;12.40;4.43;;;-0.70;94.20;;;-2.12;64.45;100955.59;10381996;28;96656;-76
2021/12/21 07:40:42;;;;;;;65.50;26.37;;;-0.50;94.00;;;-1.59;63.27;100946.25;10363974;28;98317;-81
2021/12/21 07:45:45;;;;;;;5.13;3.27;;;-0.20;93.50;;;-1.26;62.32;100936.84;10360185;28;96889;-76
2021/12/21 07:50:50;;;;;;;12.73;4.50;;;0.10;93.60;;;-0.91;60.64;100944.66;10379081;28;96860;-76
2021/12/21 07:55:53;;;;;;;13.93;5.13;;;0.30;92.50;;;-0.51;59.61;100942.66;10382481;28;98124;-76
2021/12/21 08:01:03;;;;;;;5.57;2.27;;;0.60;91.00;;;-0.11;58.25;100942.25;10372607;28;96935;-76
2021/12/21 08:06:09;;;;;;;4.60;1.43;;;0.90;91.00;;;0.26;57.38;100941.13;10371971;28;98831;-76
2021/12/21 08:12:10;;;;;;;4.60;1.90;;;1.30;90.90;;;0.43;56.34;100936.75;10364636;28;97144;-76
2021/12/21 08:16:37;;;;;;;6.87;3.07;;;1.50;90.20;;;0.62;56.71;100934.78;10382599;28;98247;-77
2021/12/21 08:21:40;;;;;;;3.17;1.70;;;1.70;89.60;;;0.74;57.28;100935.84;10370520;28;98188;-77
2021/12/21 08:26:43;;;;;;;3.27;1.80;;;1.90;90.40;;;0.98;57.96;100938.84;10391585;28;96934;-77
2021/12/21 08:31:47;;;;;;;4.93;2.20;;;2.20;90.60;;;1.15;58.08;100937.88;10376825;28;96822;-77
2021/12/21 08:36:50;;;;;;;9.30;3.00;;;2.50;91.10;;;1.48;58.09;100935.03;10388237;28;96603;-77
2021/12/21 08:41:59;;;;;;;5.60;2.50;;;2.70;91.20;;;1.71;57.46;100936.25;10411179;28;96495;-77
2021/12/21 08:47:02;;;;;;;5.30;3.20;;;2.90;90.50;;;1.94;56.43;100945.34;10371431;28;96635;-77
2021/12/21 08:52:07;;;;;;;7.03;3.70;;;3.20;90.00;;;1.70;56.40;100948.53;10400155;28;96597;-76
2021/12/21 08:57:14;;;;;;;5.60;2.10;;;3.20;87.20;;;1.09;57.77;100949.53;10372263;28;96774;-75
2021/12/21 09:02:16;;;;;;;3.53;1.90;;;2.90;86.50;;;0.60;59.49;100943.63;10344520;28;96679;-76
2021/12/21 09:07:19;;;;;;;2.60;1.73;;;2.50;87.80;;;0.23;60.42;100956.94;10366118;28;96673;-75
2021/12/21 09:12:22;;;;;;;4.20;1.70;;;2.20;88.20;;;0.20;60.75;100969.38;10356208;28;96600;-76
2021/12/21 09:17:25;;;;;;;5.07;1.97;;;2.20;89.30;;;0.20;60.59;100969.38;10386127;28;98462;-75
2021/12/21 09:22:28;;;;;;;21.97;8.97;;;2.10;89.00;;;0.12;60.55;100975.00;10388958;28;96621;-76
2021/12/21 09:27:32;;;;;;;6.80;2.43;;;2.10;88.70;;;0.08;61.29;100972.63;10358168;28;96421;-76
2021/12/21 09:32:35;;;;;;;4.47;2.00;;;2.00;89.30;;;0.08;62.60;100981.31;10361104;28;96588;-76
2021/12/21 09:37:39;;;;;;;4.20;2.30;;;2.00;90.30;;;0.14;63.86;100977.53;10362677;28;96427;-76
2021/12/21 09:42:43;;;;;;;4.43;2.10;;;2.00;91.20;;;0.18;64.50;100973.81;10365695;28;96548;-76
2021/12/21 09:47:46;;;;;;;6.47;2.80;;;2.10;92.30;;;0.21;65.18;100973.66;10382077;28;96493;-76
2021/12/21 09:52:49;;;;;;;5.90;2.40;;;2.10;92.90;;;0.25;65.11;100964.72;10403669;28;96534;-76
2021/12/21 09:57:53;;;;;;;5.00;2.30;;;2.20;92.80;;;0.33;65.09;100961.69;10398747;28;96587;-76
2021/12/21 10:03:09;;;;;;;6.00;2.40;;;2.20;92.70;;;0.36;64.34;100951.94;10375148;28;96603;-77
2021/12/21 10:08:19;;;;;;;6.33;2.40;;;2.30;92.60;;;0.39;64.58;100936.06;10418620;28;97209;-76
2021/12/21 10:13:25;;;;;;;36.83;10.40;;;2.30;92.50;;;0.45;63.90;100937.50;10341206;28;97799;-77
2021/12/21 10:18:41;;;;;;;5.70;2.70;;;2.30;92.30;;;0.46;63.85;100933.94;10379625;28;96569;-76
2021/12/21 10:23:54;;;;;;;5.10;2.93;;;2.30;92.20;;;0.45;63.76;100929.66;10383989;28;96519;-77
2021/12/21 10:29:05;;;;;;;6.10;2.37;;;2.30;92.20;;;0.46;64.22;100926.94;10387364;28;97443;-77
2021/12/21 10:34:16;;;;;;;5.40;2.40;;;2.40;92.30;;;0.46;64.02;100931.31;10369354;28;96501;-77
2021/12/21 10:39:22;;;;;;;5.43;2.43;;;2.40;92.40;;;0.42;63.88;100943.75;10376875;28;96899;-77
2021/12/21 10:44:26;;;;;;;5.70;2.70;;;2.30;92.20;;;0.42;64.79;100932.41;10419636;28;96470;-77
2021/12/21 10:49:31;;;;;;;3.97;2.27;;;2.30;92.50;;;0.47;64.73;100920.78;10369450;28;96680;-77
2021/12/21 10:54:42;;;;;;;5.33;2.43;;;2.40;93.00;;;0.76;62.95;100913.06;10392845;28;96438;-77
2021/12/21 10:59:52;;;;;;;6.00;2.87;;;2.60;92.50;;;0.79;63.22;100898.03;10352645;28;96500;-77
2021/12/21 11:05:10;;;;;;;4.77;2.97;;;2.70;92.10;;;0.80;63.44;100899.72;10364959;28;96571;-77
2021/12/21 11:10:27;;;;;;;7.23;3.20;;;2.70;92.00;;;0.82;63.59;100890.94;10362151;28;96835;-78
2021/12/21 11:15:53;;;;;;;39.27;11.00;;;2.70;92.10;;;0.81;63.64;100890.09;10379309;28;96507;-77
2021/12/21 11:20:57;;;;;;;7.80;3.53;;;2.70;92.10;;;0.78;63.10;100875.44;10364161;28;97027;-77
2021/12/21 11:26:02;;;;;;;7.30;3.03;;;2.70;91.70;;;0.82;62.65;100876.06;10372675;28;97703;-77
2021/12/21 11:31:08;;;;;;;5.57;2.93;;;2.70;91.20;;;0.85;62.19;100870.69;10363128;28;98425;-77
2021/12/21 11:41:39;;;;;;;9.90;2.50;;;2.80;90.80;;;0.90;62.19;100867.78;10373960;28;96642;-77
2021/12/21 11:47:03;;;;;;;7.07;2.73;;;2.80;90.80;;;0.94;61.00;100879.75;10378926;28;97622;-77
2021/12/21 11:52:16;;;;;;;4.60;2.40;;;2.90;90.50;;;0.96;61.55;100880.50;10348804;28;98541;-77
2021/12/21 11:57:36;;;;;;;10.57;3.10;;;2.90;90.50;;;0.98;61.73;100870.81;10385780;28;99071;-77
2021/12/21 12:02:40;;;;;;;15.47;3.43;;;2.90;90.50;;;1.00;60.10;100871.53;10382121;28;96590;-77
2021/12/21 12:07:44;;;;;;;14.37;4.07;;;2.90;88.60;;;0.99;59.62;100862.84;10373574;28;96657;-77
2021/12/21 12:12:47;;;;;;;60.80;13.33;;;3.00;88.50;;;1.03;59.41;100863.53;10388441;28;97819;-77
2021/12/21 12:17:51;;;;;;;43.83;15.87;;;2.90;87.70;;;1.04;58.58;100865.19;10365303;28;98403;-77
2021/12/21 12:23:08;;;;;;;12.57;5.60;;;3.00;86.60;;;1.04;58.63;100868.66;10389923;28;96695;-76
2021/12/21 12:28:22;;;;;;;7.63;4.17;;;3.00;85.80;;;1.01;57.59;100858.34;10378871;28;97185;-76
2021/12/21 12:33:38;;;;;;;5.43;2.43;;;3.00;84.00;;;1.00;57.44;100861.06;10376075;28;96690;-76
2021/12/21 12:38:44;;;;;;;4.87;1.97;;;2.90;83.80;;;0.94;56.68;100862.28;10361056;28;96431;-76
2021/12/21 12:43:47;;;;;;;9.57;4.73;;;2.90;82.50;;;0.91;57.46;100859.00;10369380;28;96666;-76
2021/12/21 12:48:51;;;;;;;5.30;2.30;;;2.90;83.50;;;0.89;58.05;100863.47;10369465;28;96751;-76
2021/12/21 12:53:55;;;;;;;9.70;5.80;;;2.80;83.50;;;0.86;57.68;100861.06;10362859;28;96799;-77
2021/12/21 12:59:05;;;;;;;5.30;1.97;;;2.80;83.40;;;0.82;56.76;100864.78;10368671;28;98357;-77
2021/12/21 13:04:12;;;;;;;4.97;2.17;;;2.80;82.10;;;0.76;57.08;100866.81;10362250;28;96784;-77
2021/12/21 13:09:18;;;;;;;3.70;1.90;;;2.70;82.50;;;0.74;57.68;100873.91;10375094;28;97318;-78
2021/12/21 13:14:21;;;;;;;6.17;3.10;;;2.70;83.00;;;0.67;58.10;100869.97;10390039;28;96932;-78
2021/12/21 13:19:26;;;;;;;5.00;2.23;;;2.70;83.20;;;0.61;58.45;100878.16;10377493;28;96915;-77
2021/12/21 13:24:33;;;;;;;4.37;2.50;;;2.60;83.70;;;0.55;58.61;100880.28;10362226;28;96663;-77
2021/12/21 13:29:37;;;;;;;5.00;2.63;;;2.60;83.60;;;0.45;58.49;100879.97;10366955;28;98254;-78
2021/12/21 13:34:52;;;;;;;9.23;3.90;;;2.50;82.90;;;0.37;58.04;100877.78;10381698;28;96915;-77
2021/12/21 13:40:00;;;;;;;7.17;2.60;;;2.40;82.10;;;0.31;57.95;100879.91;10375029;28;96584;-77
2021/12/21 13:45:06;;;;;;;2.90;1.63;;;2.40;82.50;;;0.26;57.52;100886.22;10352481;28;97976;-78
2021/12/21 13:50:25;;;;;;;4.73;2.20;;;2.30;81.10;;;0.21;58.01;100883.00;10367999;28;98334;-78
2021/12/21 13:55:39;;;;;;;6.20;2.07;;;2.30;82.00;;;0.17;58.38;100883.25;10382056;28;96592;-78
2021/12/21 14:00:46;;;;;;;4.53;1.83;;;2.20;81.70;;;0.11;58.97;100881.81;10339849;28;96553;-78
2021/12/21 14:05:58;;;;;;;3.83;2.33;;;2.20;83.00;;;0.06;59.43;100883.00;10394305;28;96971;-79
2021/12/21 14:11:02;;;;;;;3.58;2.28;;;2.20;83.20;;;-0.03;58.82;100874.75;10379404;28;97924;-79
2021/12/21 14:16:14;;;;;;;5.77;2.80;;;2.10;82.20;;;-0.10;59.62;100881.25;10376649;28;97094;-78
2021/12/21 14:21:24;;;;;;;4.97;2.20;;;2.00;83.40;;;-0.16;60.57;100885.97;10378443;28;96600;-78
2021/12/21 14:26:34;;;;;;;7.80;2.90;;;1.90;84.70;;;-0.26;60.69;100885.59;10406582;28;97665;-78
2021/12/21 14:31:53;;;;;;;6.00;3.23;;;1.90;85.10;;;-0.41;61.88;100889.03;10382367;28;96827;-79
2021/12/21 14:36:58;;;;;;;4.57;2.80;;;1.70;85.50;;;-0.60;63.59;100899.56;10399811;28;96528;-78
2021/12/21 14:42:06;;;;;;;8.40;2.43;;;1.60;86.90;;;-0.77;64.68;100899.63;10384413;28;96983;-78
2021/12/21 14:47:15;;;;;;;9.20;4.00;;;1.40;88.40;;;-0.91;65.59;100898.53;10400466;28;96939;-78
2021/12/21 14:52:45;;;;;;;10.70;5.90;;;1.30;89.40;;;-1.04;66.64;100891.41;10366351;28;96538;-77
2021/12/21 14:58:05;;;;;;;7.23;3.40;;;1.20;90.30;;;-1.14;66.81;100896.22;10370377;28;96665;-78
2021/12/21 15:03:13;;;;;;;8.77;3.60;;;1.10;90.80;;;-1.23;67.93;100894.94;10380850;28;97166;-78
2021/12/21 15:08:22;;;;;;;11.57;4.27;;;1.00;91.40;;;-1.27;68.38;100909.03;10387325;28;96727;-78
2021/12/21 15:13:24;;;;;;;21.40;9.37;;;0.90;92.00;;;-1.35;68.83;100909.41;10363541;28;97142;-78
2021/12/21 15:18:27;;;;;;;6.57;3.13;;;0.80;92.20;;;-1.40;68.76;100914.00;10354158;28;97210;-78
2021/12/21 15:23:30;;;;;;;6.73;3.23;;;0.80;92.40;;;-1.48;69.61;100907.50;10376941;28;96729;-77
2021/12/21 15:28:34;;;;;;;27.17;10.87;;;0.70;92.80;;;-1.55;69.92;100911.31;10360771;28;96658;-77
2021/12/21 15:33:37;;;;;;;26.23;11.97;;;0.60;93.20;;;-1.66;70.76;100917.03;10367786;28;97978;-77
2021/12/21 15:38:40;;;;;;;17.40;7.73;;;0.50;93.50;;;-1.74;70.76;100921.75;10385017;28;98615;-77
2021/12/21 15:43:43;;;;;;;19.07;8.20;;;0.50;94.00;;;-1.79;71.21;100906.34;10370499;28;96945;-77
2021/12/21 15:48:48;;;;;;;7.13;4.10;;;0.40;94.40;;;-1.79;71.52;100908.09;10389311;27;97973;-77
2021/12/21 15:53:50;;;;;;;20.87;11.97;;;0.30;94.90;;;-1.81;71.89;100922.94;10362574;28;96781;-77
2021/12/21 15:58:53;;;;;;;10.20;5.33;;;0.40;95.50;;;-1.80;72.70;100927.25;10373681;28;97258;-77
2021/12/21 16:03:58;;;;;;;14.73;8.43;;;0.30;95.70;;;-1.79;72.62;100919.38;10365807;28;98684;-77
2021/12/21 16:09:03;;;;;;;26.87;8.73;;;0.30;96.70;;;-1.86;72.32;100930.13;10370458;28;97944;-76
2021/12/21 16:14:09;;;;;;;28.67;13.93;;;0.30;96.00;;;-2.04;72.68;100937.03;10377196;28;96807;-76
2021/12/21 16:19:12;;;;;;;20.43;10.77;;;0.20;97.20;;;-2.25;73.31;100931.88;10380465;27;97566;-76
2021/12/21 16:24:15;;;;;;;43.97;18.90;;;0.10;98.20;;;-2.44;73.55;100937.06;10390049;28;97449;-76
2021/12/21 16:29:19;;;;;;;11.87;5.63;;;-0.10;97.90;;;-2.61;74.09;100926.53;10362306;28;96961;-77
2021/12/21 16:34:22;;;;;;;10.90;5.20;;;-0.20;97.90;;;-2.69;74.79;100931.22;10365909;28;97163;-77
2021/12/21 16:39:25;;;;;;;7.50;4.23;;;-0.40;98.10;;;-2.68;75.64;100926.88;10395081;28;98059;-77
2021/12/21 16:44:29;;;;;;;7.60;4.40;;;-0.40;98.60;;;-2.63;76.25;100930.13;10365184;28;98194;-77
2021/12/21 16:49:32;;;;;;;10.70;6.03;;;-0.40;99.90;;;-2.57;75.97;100929.84;10359224;28;98038;-77
2021/12/21 16:54:35;;;;;;;14.93;6.30;;;-0.40;99.20;;;-2.55;76.30;100928.88;10347546;28;97285;-78
2021/12/21 16:59:44;;;;;;;10.83;5.67;;;-0.40;99.90;;;-2.56;76.41;100927.19;10381422;28;96854;-77
2021/12/21 17:04:54;;;;;;;16.80;7.67;;;-0.40;99.80;;;-2.55;76.35;100934.06;10358726;28;97334;-75
2021/12/21 17:10:03;;;;;;;26.13;13.33;;;-0.40;99.90;;;-2.50;76.41;100934.72;10356485;28;96611;-75
2021/12/21 17:15:11;;;;;;;12.97;5.37;;;-0.40;99.90;;;-2.45;75.90;100932.78;10379759;28;96935;-78
2021/12/21 17:20:15;;;;;;;13.60;6.23;;;-0.30;99.90;;;-2.38;76.00;100938.53;10372002;28;96918;-78
2021/12/21 17:25:18;;;;;;;17.50;8.03;;;-0.30;99.90;;;-2.44;75.97;100944.88;10375148;28;96607;-77
2021/12/21 17:30:22;;;;;;;15.33;7.77;;;-0.30;99.90;;;-2.53;75.88;100945.25;10345365;28;96944;-77
2021/12/21 17:35:25;;;;;;;55.13;21.20;;;-0.30;99.90;;;-2.61;75.98;100955.16;10373117;28;96787;-77
2021/12/21 17:40:30;;;;;;;48.10;19.27;;;-0.40;99.90;;;-2.66;76.31;100957.09;10353101;27;98036;-77
2021/12/21 17:45:36;;;;;;;19.83;10.37;;;-0.50;99.90;;;-2.66;76.02;100953.66;10370725;27;97852;-77
2021/12/21 17:50:39;;;;;;;15.83;9.47;;;-0.50;99.90;;;-2.71;76.20;100953.84;10387647;28;96895;-77
2021/12/21 17:55:42;;;;;;;27.67;12.03;;;-0.50;99.90;;;-2.74;76.26;100954.00;10376818;28;98462;-74
2021/12/21 18:00:45;;;;;;;20.63;10.27;;;-0.50;99.90;;;-2.80;76.54;100954.25;10389705;28;96930;-75
2021/12/21 18:05:48;;;;;;;15.63;8.37;;;-0.60;99.90;;;-2.85;76.40;100958.78;10379546;28;96725;-76
2021/12/21 18:10:53;;;;;;;15.30;7.57;;;-0.60;99.90;;;-2.92;76.77;100959.97;10377937;28;96844;-77
2021/12/21 18:15:56;;;;;;;12.83;6.87;;;-0.60;99.90;;;-2.94;76.59;100965.19;10393118;28;96867;-77
2021/12/21 18:20:59;;;;;;;19.73;7.80;;;-0.70;99.90;;;-2.96;76.69;100973.06;10370527;28;98439;-77
2021/12/21 18:26:02;;;;;;;16.67;6.93;;;-0.70;99.90;;;-2.97;76.57;100966.19;10373287;28;97744;-77
2021/12/21 18:31:06;;;;;;;15.93;7.63;;;-0.70;99.90;;;-3.03;76.27;100971.63;10377006;28;97141;-77
2021/12/21 18:36:09;;;;;;;11.13;4.93;;;-0.70;99.90;;;-3.17;76.60;100971.38;10368272;28;98095;-77
2021/12/21 18:41:12;;;;;;;8.93;3.77;;;-0.80;99.90;;;-3.22;77.13;100965.50;10365155;28;97147;-77
2021/12/21 18:46:15;;;;;;;7.80;3.17;;;-0.90;99.90;;;-3.18;77.55;100966.22;10371842;28;98141;-77
2021/12/21 18:51:20;;;;;;;7.70;3.47;;;-0.90;99.90;;;-3.13;77.49;100979.88;10382568;27;96770;-77
2021/12/21 18:56:24;;;;;;;7.57;3.33;;;-0.90;99.90;;;-3.06;77.45;100981.31;10368919;28;97946;-77
2021/12/21 19:01:33;;;;;;;21.80;8.70;;;-0.90;99.90;;;-3.01;76.90;100980.22;10372779;28;96982;-77
2021/12/21 19:06:38;;;;;;;12.23;5.20;;;-0.80;99.90;;;-2.96;76.69;100991.28;10376339;28;98643;-77
2021/12/21 19:11:41;;;;;;;9.50;4.80;;;-0.80;99.90;;;-3.01;76.48;100988.00;10359933;28;96958;-77
2021/12/21 19:16:44;;;;;;;23.97;9.03;;;-0.80;99.90;;;-3.11;76.23;100991.91;10390224;28;97428;-77
2021/12/21 19:21:47;;;;;;;30.10;12.23;;;-0.80;99.90;;;-3.30;76.44;100985.72;10368135;28;97749;-76
2021/12/21 19:26:49;;;;;;;37.17;14.23;;;-0.90;99.90;;;-3.52;76.91;100989.19;10375239;27;97958;-76
2021/12/21 19:31:52;;;;;;;41.03;14.73;;;-1.10;99.90;;;-3.69;77.29;100991.59;10408292;27;97870;-76
2021/12/21 19:36:55;;;;;;;53.53;21.77;;;-1.30;99.90;;;-3.84;78.14;101002.53;10385812;27;96936;-76
2021/12/21 19:41:58;;;;;;;50.70;22.03;;;-1.40;99.90;;;-4.00;78.54;101002.25;10372491;28;97262;-76
2021/12/21 19:47:02;;;;;;;74.77;31.97;;;-1.50;99.90;;;-4.14;78.98;101007.09;10375627;28;98247;-76
2021/12/21 19:52:07;;;;;;;61.73;24.03;;;-1.70;99.90;;;-4.26;79.53;101010.97;10369107;28;96911;-76
2021/12/21 19:57:10;;;;;;;41.47;17.57;;;-1.80;99.90;;;-4.40;79.83;101011.44;10359480;28;97542;-76
2021/12/21 20:02:13;;;;;;;36.13;14.40;;;-1.90;99.90;;;-4.51;80.23;101007.53;10372028;28;97080;-76
2021/12/21 20:07:17;;;;;;;33.77;14.70;;;-2.00;99.90;;;-4.60;80.58;101009.53;10389013;28;98418;-76
2021/12/21 20:12:30;;;;;;;30.10;14.03;;;-2.10;99.90;;;-4.68;81.23;101011.56;10361395;28;96552;-76
2021/12/21 20:17:34;;;;;;;35.80;15.17;;;-2.20;99.90;;;-4.76;81.56;101013.53;10369354;27;96839;-76
2021/12/21 20:22:37;;;;;;;34.33;14.87;;;-2.30;99.90;;;-4.83;81.77;101012.06;10383479;28;96603;-76
2021/12/21 20:27:40;;;;;;;16.33;7.40;;;-2.40;99.90;;;-4.88;82.20;101008.75;10383325;28;96982;-76
2021/12/21 20:32:43;;;;;;;13.67;5.13;;;-2.40;99.90;;;-4.83;82.88;101017.25;10356464;27;96692;-76
2021/12/21 20:37:47;;;;;;;8.40;4.30;;;-2.40;99.90;;;-4.60;83.32;101011.28;10350489;28;96720;-76
2021/12/21 20:42:50;;;;;;;14.13;5.23;;;-2.30;99.90;;;-4.32;83.17;101013.78;10401468;27;96539;-76
2021/12/21 20:47:53;;;;;;;11.83;4.80;;;-2.10;99.90;;;-4.09;82.39;101015.56;10363616;28;98660;-75
2021/12/21 20:52:57;;;;;;;9.27;4.20;;;-1.90;99.90;;;-3.93;81.69;101018.47;10371664;28;96890;-76
2021/12/21 20:58:01;;;;;;;7.50;4.10;;;-1.80;99.90;;;-3.87;80.88;101006.09;10392104;28;96685;-75
2021/12/21 21:03:04;;;;;;;49.07;17.27;;;-1.70;99.90;;;-3.81;79.88;101015.41;10388789;28;97434;-75
2021/12/21 21:08:09;;;;;;;30.57;13.63;;;-1.60;99.90;;;-3.94;79.50;101019.38;10378136;28;96705;-75
2021/12/21 21:13:13;;;;;;;42.13;15.57;;;-1.70;99.90;;;-4.12;79.50;101020.88;10367416;27;97091;-75
2021/12/21 21:18:19;;;;;;;38.50;16.30;;;-1.80;99.90;;;-4.32;79.95;101024.16;10382666;27;96930;-75
2021/12/21 21:23:22;;;;;;;46.00;19.97;;;-1.90;99.90;;;-4.51;80.41;101021.34;10361491;28;98272;-75
2021/12/21 21:28:26;;;;;;;40.93;15.07;;;-2.10;99.90;;;-4.67;80.67;101017.59;10405672;27;97579;-75
2021/12/21 21:33:32;;;;;;;32.13;14.27;;;-2.20;99.90;;;-4.84;81.17;101028.50;10368636;28;98474;-75
2021/12/21 21:38:35;;;;;;;38.57;15.17;;;-2.30;99.90;;;-4.97;81.03;101035.00;10380103;28;98619;-76
2021/12/21 21:43:38;;;;;;;38.77;16.73;;;-2.40;99.90;;;-5.06;81.61;101040.47;10358201;27;96663;-75
2021/12/21 21:48:41;;;;;;;33.33;15.30;;;-2.60;99.90;;;-5.17;81.92;101043.38;10368501;28;96861;-77
2021/12/21 21:53:46;;;;;;;54.00;21.93;;;-2.70;99.90;;;-5.31;82.16;101041.22;10382371;28;98446;-77